createdAt,value
2022-09-07T00:00:06.336Z,64.96
2022-09-07T00:02:33.326Z,66.31
2022-09-07T00:05:00.302Z,67.08
2022-09-07T00:07:27.274Z,68.13
2022-09-07T00:09:54.240Z,69.08
2022-09-07T00:12:21.232Z,69.38
2022-09-07T00:14:48.261Z,68.85
2022-09-07T00:17:15.259Z,66.71
2022-09-07T00:19:42.277Z,67.59
2022-09-07T00:22:09.579Z,70.05
2022-09-07T00:24:36.663Z,70.23
2022-09-07T00:27:03.720Z,70.68
2022-09-07T00:29:30.640Z,69.99
2022-09-07T00:31:57.622Z,71.16
2022-09-07T00:34:24.603Z,71.67
2022-09-07T00:36:51.528Z,71.16
2022-09-07T00:39:18.587Z,70.65
2022-09-07T00:41:45.563Z,70.25
2022-09-07T00:44:40.599Z,70.20
2022-09-07T00:47:21.128Z,70.74
2022-09-07T00:49:54.777Z,71.88
2022-09-07T00:52:23.311Z,71.15
2022-09-07T00:54:56.790Z,71.02
2022-09-07T00:57:24.119Z,71.68
2022-09-07T00:59:53.092Z,69.82
2022-09-07T01:02:20.729Z,70.31
2022-09-07T01:05:01.944Z,69.62
2022-09-07T01:07:31.095Z,69.22
2022-09-07T01:09:58.294Z,70.19
2022-09-07T01:12:25.416Z,70.09
2022-09-07T01:14:53.726Z,69.90
2022-09-07T01:17:29.107Z,69.15
2022-09-07T01:20:25.106Z,67.66
2022-09-07T01:23:00.743Z,67.62
2022-09-07T01:26:01.529Z,68.43
2022-09-07T01:28:34.450Z,68.61
2022-09-07T01:31:18.633Z,68.36
2022-09-07T01:34:16.481Z,67.85
2022-09-07T01:36:48.997Z,69.15
2022-09-07T01:39:19.554Z,70.28
2022-09-07T01:41:58.579Z,68.78
2022-09-07T01:44:28.540Z,67.99
2022-09-07T01:47:14.147Z,66.99
2022-09-07T01:50:10.335Z,67.34
2022-09-07T01:52:53.335Z,67.00
2022-09-07T01:55:30.794Z,66.23
2022-09-07T01:58:15.103Z,67.17
2022-09-07T02:00:51.066Z,69.99
2022-09-07T02:03:25.707Z,70.40
2022-09-07T02:06:02.186Z,70.77
2022-09-07T02:08:35.582Z,74.11
2022-09-07T02:11:08.465Z,75.76
2022-09-07T02:13:40.684Z,74.74
2022-09-07T02:16:22.464Z,74.29
2022-09-07T02:18:55.371Z,74.17
2022-09-07T02:21:28.689Z,73.96
2022-09-07T02:24:10.339Z,74.29
2022-09-07T02:26:39.736Z,75.16
2022-09-07T02:29:07.692Z,75.99
2022-09-07T02:31:34.798Z,75.35
2022-09-07T02:34:02.137Z,76.89
2022-09-07T02:36:34.493Z,77.03
2022-09-07T02:39:01.525Z,73.08
2022-09-07T02:41:33.155Z,73.49
2022-09-07T02:44:02.576Z,74.14
2022-09-07T02:46:56.489Z,73.28
2022-09-07T02:50:02.074Z,76.09
2022-09-07T02:52:57.896Z,77.20
2022-09-07T02:55:49.116Z,77.76
2022-09-07T02:58:55.101Z,76.41
2022-09-07T03:01:24.732Z,78.02
2022-09-07T03:04:13.126Z,78.38
2022-09-07T03:07:04.954Z,77.29
2022-09-07T03:09:37.524Z,74.98
2022-09-07T03:12:05.622Z,75.68
2022-09-07T03:14:34.500Z,76.86
2022-09-07T03:17:02.374Z,74.86
2022-09-07T03:19:29.365Z,76.54
2022-09-07T03:21:56.298Z,78.06
2022-09-07T03:24:23.281Z,79.82
2022-09-07T03:26:52.026Z,79.60
2022-09-07T03:29:19.577Z,78.81
2022-09-07T03:31:46.622Z,78.62
2022-09-07T03:34:13.955Z,77.85
2022-09-07T03:36:41.095Z,78.50
2022-09-07T03:39:08.043Z,78.69
2022-09-07T03:41:35.055Z,77.29
2022-09-07T03:44:06.205Z,76.06
2022-09-07T03:46:34.410Z,75.46
2022-09-07T03:49:01.718Z,74.94
2022-09-07T03:51:28.738Z,73.55
2022-09-07T03:53:55.854Z,73.18
2022-09-07T03:56:24.367Z,74.00
2022-09-07T03:58:53.288Z,75.79
2022-09-07T04:01:23.582Z,74.99
2022-09-07T04:03:50.764Z,75.61
2022-09-07T04:06:19.661Z,75.58
2022-09-07T04:08:46.875Z,77.52
2022-09-07T04:11:17.205Z,79.40
2022-09-07T04:13:45.425Z,79.19
2022-09-07T04:16:22.513Z,79.25
2022-09-07T04:18:50.548Z,80.29
2022-09-07T04:21:18.804Z,78.43
2022-09-07T04:23:45.827Z,76.83
2022-09-07T04:26:23.559Z,75.74
2022-09-07T04:28:51.076Z,75.94
2022-09-07T04:31:19.459Z,75.19
2022-09-07T04:33:48.318Z,73.70
2022-09-07T04:36:16.732Z,71.88
2022-09-07T04:38:44.401Z,72.88
2022-09-07T04:41:15.372Z,72.50
2022-09-07T04:43:43.502Z,71.88
2022-09-07T04:46:25.778Z,70.89
2022-09-07T04:48:55.189Z,69.75
2022-09-07T04:51:25.220Z,68.82
2022-09-07T04:53:54.132Z,68.79
2022-09-07T04:56:21.930Z,67.53
2022-09-07T04:58:49.349Z,68.48
2022-09-07T05:01:19.300Z,68.24
2022-09-07T05:03:47.348Z,66.27
2022-09-07T05:06:15.273Z,65.41
2022-09-07T05:08:45.237Z,64.12
2022-09-07T05:11:13.741Z,61.31
2022-09-07T05:13:40.670Z,57.14
2022-09-07T05:16:13.430Z,52.88
2022-09-07T05:18:40.628Z,46.42
2022-09-07T05:21:13.983Z,41.26
2022-09-07T05:23:41.329Z,40.01
2022-09-07T05:26:09.412Z,38.64
2022-09-07T05:28:36.972Z,36.16
2022-09-07T05:36:38.344Z,33.85
2022-09-07T05:39:06.739Z,34.05
2022-09-07T05:41:34.204Z,33.58
2022-09-07T05:46:48.462Z,31.11
2022-09-07T05:49:15.418Z,32.94
2022-09-07T05:51:42.418Z,34.68
2022-09-07T05:54:11.353Z,36.60
2022-09-07T05:56:38.384Z,39.82
2022-09-07T05:59:05.381Z,43.25
2022-09-07T06:01:32.749Z,44.58
2022-09-07T06:04:00.582Z,45.74
2022-09-07T06:06:27.568Z,46.39
2022-09-07T06:08:54.538Z,46.65
2022-09-07T06:11:23.778Z,46.80
2022-09-07T06:13:52.114Z,47.03
2022-09-07T06:16:20.265Z,46.80
2022-09-07T06:18:49.080Z,45.39
2022-09-07T06:21:21.882Z,44.57
2022-09-07T06:23:50.062Z,43.18
2022-09-07T06:26:18.303Z,42.84
2022-09-07T06:28:50.182Z,42.26
2022-09-07T06:31:20.368Z,40.75
2022-09-07T06:33:48.673Z,39.83
2022-09-07T06:36:17.042Z,39.35
2022-09-07T06:38:44.803Z,39.85
2022-09-07T06:44:01.504Z,38.10
2022-09-07T06:49:15.787Z,36.43
2022-09-07T06:51:42.848Z,36.30
2022-09-07T06:56:57.100Z,31.96
2022-09-07T06:59:24.041Z,29.26
2022-09-07T07:01:50.956Z,27.57
2022-09-07T07:04:17.970Z,28.09
2022-09-07T07:06:44.907Z,25.92
2022-09-07T07:09:13.477Z,24.28
2022-09-07T07:11:40.435Z,26.83
2022-09-07T07:14:07.407Z,27.21
2022-09-07T07:16:36.356Z,28.13
2022-09-07T07:19:03.398Z,31.02
2022-09-07T07:21:42.992Z,30.17
2022-09-07T07:24:16.318Z,31.22
2022-09-07T07:26:48.662Z,32.57
2022-09-07T07:29:18.634Z,33.52
2022-09-07T07:31:47.302Z,34.13
2022-09-07T07:34:15.285Z,35.19
2022-09-07T07:36:42.306Z,34.00
2022-09-07T07:42:00.059Z,36.95
2022-09-07T07:44:30.315Z,37.94
2022-09-07T07:46:57.290Z,35.18
2022-09-07T07:49:24.376Z,36.53
2022-09-07T07:54:41.642Z,37.07
2022-09-07T07:57:08.946Z,35.84
2022-09-07T07:59:35.926Z,36.23
2022-09-07T08:02:05.269Z,37.26
2022-09-07T08:04:34.452Z,36.47
2022-09-07T08:07:08.690Z,33.90
2022-09-07T08:09:40.972Z,35.56
2022-09-07T08:12:08.844Z,35.66
2022-09-07T08:14:42.006Z,37.11
2022-09-07T08:17:11.473Z,37.56
2022-09-07T08:19:39.133Z,37.87
2022-09-07T08:22:06.402Z,36.83
2022-09-07T08:24:33.614Z,34.69
2022-09-07T08:27:00.807Z,35.58
2022-09-07T08:29:31.268Z,37.29
2022-09-07T08:32:00.862Z,39.44
2022-09-07T08:34:27.739Z,36.95
2022-09-07T08:36:54.961Z,37.67
2022-09-07T08:39:21.960Z,37.52
2022-09-07T08:41:59.931Z,37.47
2022-09-07T08:44:38.057Z,38.00
2022-09-07T08:47:32.402Z,39.45
2022-09-07T08:50:02.932Z,39.00
2022-09-07T08:52:51.272Z,37.81
2022-09-07T08:55:31.337Z,38.20
2022-09-07T08:58:32.233Z,36.89
2022-09-07T09:07:03.521Z,41.01
2022-09-07T09:09:51.892Z,40.48
2022-09-07T09:12:29.131Z,39.48
2022-09-07T09:14:59.061Z,40.20
2022-09-07T09:17:38.490Z,39.51
2022-09-07T09:20:35.639Z,39.44
2022-09-07T09:23:12.470Z,38.60
2022-09-07T09:25:47.090Z,35.77
2022-09-07T09:28:14.142Z,37.05
2022-09-07T09:30:42.051Z,38.99
2022-09-07T09:33:18.874Z,36.40
2022-09-07T09:35:51.348Z,37.81
2022-09-07T09:38:33.223Z,38.00
2022-09-07T09:41:06.724Z,36.29
2022-09-07T09:43:55.996Z,33.72
2022-09-07T09:46:33.276Z,37.40
2022-09-07T09:49:06.220Z,38.88
2022-09-07T09:54:42.170Z,36.42
2022-09-07T09:59:04.709Z,35.93
2022-09-07T10:00:35.391Z,38.85
2022-09-07T10:06:07.323Z,37.54
2022-09-07T10:08:37.152Z,35.11
2022-09-07T10:11:06.495Z,35.65
2022-09-07T10:13:43.919Z,36.38
2022-09-07T10:16:15.071Z,37.05
2022-09-07T10:18:56.298Z,40.08
2022-09-07T10:21:24.567Z,37.86
2022-09-07T10:24:13.399Z,37.01
2022-09-07T10:26:42.092Z,39.76
2022-09-07T10:29:12.201Z,38.61
2022-09-07T10:31:45.684Z,39.02
2022-09-07T10:34:26.576Z,39.71
2022-09-07T10:36:53.584Z,38.68
2022-09-07T10:39:51.079Z,39.75
2022-09-07T10:42:29.086Z,38.04
2022-09-07T10:45:17.198Z,39.39
2022-09-07T10:48:01.982Z,37.47
2022-09-07T10:50:50.220Z,38.71
2022-09-07T10:53:42.472Z,38.93
2022-09-07T10:56:15.733Z,39.21
2022-09-07T10:59:02.958Z,38.59
2022-09-07T11:02:12.146Z,37.81
2022-09-07T11:04:51.973Z,38.66
2022-09-07T11:07:22.026Z,39.44
2022-09-07T11:09:54.356Z,38.96
2022-09-07T11:12:36.209Z,39.13
2022-09-07T11:15:21.285Z,40.61
2022-09-07T11:18:02.953Z,41.03
2022-09-07T11:20:32.336Z,40.01
2022-09-07T11:23:16.933Z,40.46
2022-09-07T11:26:04.303Z,40.00
2022-09-07T11:29:29.087Z,39.99
2022-09-07T11:31:45.005Z,38.73
2022-09-07T11:34:33.792Z,38.67
2022-09-07T11:37:08.226Z,37.85
2022-09-07T11:39:38.147Z,37.95
2022-09-07T11:45:16.628Z,37.48
2022-09-07T11:47:56.439Z,37.86
2022-09-07T11:50:24.642Z,40.10
2022-09-07T11:53:00.714Z,38.29
2022-09-07T11:55:33.797Z,40.03
2022-09-07T11:58:24.072Z,38.09
2022-09-07T12:01:28.211Z,39.25
2022-09-07T12:04:24.923Z,39.42
2022-09-07T12:06:54.642Z,39.88
2022-09-07T12:09:58.116Z,40.32
2022-09-07T12:12:33.966Z,39.30
2022-09-07T12:15:34.587Z,38.84
2022-09-07T12:18:16.407Z,39.28
2022-09-07T12:20:44.145Z,40.27
2022-09-07T12:23:17.117Z,39.21
2022-09-07T12:25:46.348Z,38.94
2022-09-07T12:28:21.909Z,38.88
2022-09-07T12:30:59.293Z,39.14
2022-09-07T12:33:29.768Z,39.38
2022-09-07T12:35:59.096Z,39.50
2022-09-07T12:38:31.809Z,40.97
2022-09-07T12:41:02.423Z,40.02
2022-09-07T12:43:51.831Z,39.48
2022-09-07T12:46:34.996Z,39.80
2022-09-07T12:49:34.556Z,39.66
2022-09-07T12:52:25.730Z,40.41
2022-09-07T12:55:27.102Z,40.35
2022-09-07T12:58:25.768Z,39.07
2022-09-07T13:01:01.571Z,40.99
2022-09-07T13:03:50.284Z,42.11
2022-09-07T13:06:18.651Z,43.10
2022-09-07T13:08:48.685Z,42.59
2022-09-07T13:11:38.364Z,43.40
2022-09-07T13:14:09.479Z,43.34
2022-09-07T13:19:50.864Z,42.37
2022-09-07T13:22:33.005Z,42.31
2022-09-07T13:25:03.719Z,42.67
2022-09-07T13:27:57.414Z,42.77
2022-09-07T13:30:33.567Z,41.49
2022-09-07T13:33:25.457Z,42.60
2022-09-07T13:35:55.237Z,41.88
2022-09-07T13:38:23.380Z,41.23
2022-09-07T13:40:53.976Z,41.01
2022-09-07T13:43:24.669Z,42.50
2022-09-07T13:45:54.636Z,42.40
2022-09-07T13:48:51.529Z,42.63
2022-09-07T13:51:25.211Z,43.38
2022-09-07T13:54:18.783Z,43.05
2022-09-07T13:57:07.086Z,42.58
2022-09-07T13:59:35.383Z,43.29
2022-09-07T14:02:02.795Z,44.82
2022-09-07T14:04:36.698Z,43.98
2022-09-07T14:07:06.745Z,44.39
2022-09-07T14:09:46.004Z,45.03
2022-09-07T14:12:21.420Z,45.74
2022-09-07T14:15:28.032Z,43.73
2022-09-07T14:18:16.354Z,43.33
2022-09-07T14:20:49.775Z,44.37
2022-09-07T14:23:23.979Z,43.53
2022-09-07T14:26:23.292Z,44.05
2022-09-07T14:28:53.610Z,43.06
2022-09-07T14:31:22.691Z,43.94
2022-09-07T14:33:55.947Z,44.23
2022-09-07T14:36:43.975Z,44.35
2022-09-07T14:39:15.110Z,44.55
2022-09-07T14:41:43.425Z,44.88
2022-09-07T14:44:37.639Z,43.97
2022-09-07T14:47:30.677Z,45.17
2022-09-07T14:50:10.682Z,45.62
2022-09-07T14:53:33.143Z,46.55
2022-09-07T14:55:38.126Z,46.18
2022-09-07T14:58:15.014Z,47.70
2022-09-07T15:03:40.905Z,48.08
2022-09-07T15:07:00.933Z,47.81
2022-09-07T15:08:57.731Z,48.27
2022-09-07T15:11:34.893Z,48.48
2022-09-07T15:14:17.562Z,47.21
2022-09-07T15:16:45.618Z,47.61
2022-09-07T15:19:15.344Z,48.67
2022-09-07T15:21:43.753Z,49.02
2022-09-07T15:24:11.856Z,49.65
2022-09-07T15:29:29.106Z,49.34
2022-09-07T15:32:03.404Z,48.45
2022-09-07T15:34:32.581Z,49.58
2022-09-07T15:37:01.705Z,49.30
2022-09-07T15:39:34.480Z,48.88
2022-09-07T15:42:59.579Z,48.28
2022-09-07T15:44:50.332Z,48.53
2022-09-07T15:50:06.788Z,49.13
2022-09-07T15:52:34.006Z,49.08
2022-09-07T15:55:00.947Z,48.54
2022-09-07T16:00:17.305Z,49.59
2022-09-07T16:05:31.726Z,50.16
2022-09-07T16:10:53.502Z,50.51
2022-09-07T16:13:20.980Z,50.32
2022-09-07T16:15:48.996Z,50.25
2022-09-07T16:18:18.079Z,50.86
2022-09-07T16:20:45.827Z,50.63
2022-09-07T16:23:15.141Z,51.06
2022-09-07T16:25:56.137Z,51.30
2022-09-07T16:28:23.079Z,51.17
2022-09-07T16:30:50.346Z,51.56
2022-09-07T16:33:17.272Z,51.61
2022-09-07T16:35:44.145Z,51.69
2022-09-07T16:41:01.051Z,52.38
2022-09-07T16:43:28.231Z,52.69
2022-09-07T16:46:06.172Z,52.72
2022-09-07T16:48:35.925Z,52.69
2022-09-07T16:51:05.237Z,53.66
2022-09-07T16:53:35.024Z,53.76
2022-09-07T16:56:04.016Z,53.63
2022-09-07T16:58:36.565Z,53.33
2022-09-07T17:01:08.761Z,53.37
2022-09-07T17:03:39.586Z,53.70
2022-09-07T17:06:09.072Z,54.36
2022-09-07T17:08:37.674Z,54.61
2022-09-07T17:11:07.582Z,54.59
2022-09-07T17:13:36.157Z,54.81
2022-09-07T17:16:11.642Z,54.96
2022-09-07T17:21:36.860Z,55.05
2022-09-07T17:24:05.898Z,55.34
2022-09-07T17:26:33.451Z,55.28
2022-09-07T17:29:01.273Z,55.72
2022-09-07T17:34:21.738Z,55.91
2022-09-07T17:36:49.229Z,55.53
2022-09-07T17:39:18.153Z,56.07
2022-09-07T17:41:52.640Z,55.36
2022-09-07T17:44:20.521Z,55.68
2022-09-07T17:46:47.356Z,56.14
2022-09-07T17:49:16.825Z,56.07
2022-09-07T17:51:44.849Z,56.47
2022-09-07T17:54:14.890Z,56.55
2022-09-07T17:56:42.627Z,56.69
2022-09-07T18:01:57.793Z,55.61
2022-09-07T18:04:24.876Z,55.82
2022-09-07T18:06:53.071Z,55.80
2022-09-07T18:09:20.144Z,54.99
2022-09-07T18:11:49.120Z,53.85
2022-09-07T18:14:17.599Z,54.51
2022-09-07T18:16:46.261Z,54.88
2022-09-07T18:19:14.193Z,55.90
2022-09-07T18:21:43.450Z,55.37
2022-09-07T18:24:20.489Z,55.67
2022-09-07T18:26:51.506Z,55.75
2022-09-07T18:29:36.900Z,55.90
2022-09-07T18:32:09.440Z,55.70
2022-09-07T18:34:40.773Z,55.77
2022-09-07T18:37:08.383Z,54.25
2022-09-07T18:39:35.897Z,54.27
2022-09-07T18:42:03.165Z,54.09
2022-09-07T18:47:23.192Z,54.66
2022-09-07T18:49:54.849Z,55.65
2022-09-07T18:55:10.171Z,55.63
2022-09-07T18:57:37.676Z,55.63
2022-09-07T19:00:07.247Z,54.90
2022-09-07T19:02:34.218Z,54.12
2022-09-07T19:07:48.480Z,53.90
2022-09-07T19:10:17.044Z,53.71
2022-09-07T19:12:46.084Z,54.01
2022-09-07T19:15:13.794Z,54.02
2022-09-07T19:17:40.791Z,55.38
2022-09-07T19:20:08.477Z,55.81
2022-09-07T19:22:35.395Z,55.65
2022-09-07T19:25:02.355Z,55.98
2022-09-07T19:27:29.449Z,55.73
2022-09-07T19:29:56.354Z,55.75
2022-09-07T19:32:24.661Z,55.56
2022-09-07T19:34:54.732Z,56.00
2022-09-07T19:37:25.740Z,55.64
2022-09-07T19:39:56.803Z,55.76
2022-09-07T19:42:24.678Z,55.98
2022-09-07T19:44:52.420Z,56.12
2022-09-07T19:47:19.843Z,56.02
2022-09-07T19:49:46.809Z,54.65
2022-09-07T19:52:13.707Z,53.74
2022-09-07T19:54:40.842Z,54.25
2022-09-07T19:57:08.230Z,54.81
2022-09-07T19:59:35.379Z,54.35
2022-09-07T20:02:02.467Z,54.42
2022-09-07T20:04:29.791Z,54.31
2022-09-07T20:06:57.223Z,54.04
2022-09-07T20:09:26.000Z,54.60
2022-09-07T20:11:53.024Z,54.52
2022-09-07T20:14:20.521Z,53.70
2022-09-07T20:16:47.662Z,53.50
2022-09-07T20:19:15.191Z,53.36
2022-09-07T20:21:43.201Z,52.60
2022-09-07T20:24:14.577Z,53.87
2022-09-07T20:26:42.044Z,53.61
2022-09-07T20:29:27.884Z,55.02
2022-09-07T20:32:00.075Z,55.37
2022-09-07T20:34:28.714Z,54.87
2022-09-07T20:36:57.100Z,55.02
2022-09-07T20:39:24.307Z,54.46
2022-09-07T20:41:51.484Z,54.66
2022-09-07T20:44:19.065Z,54.52
2022-09-07T20:46:46.068Z,54.73
2022-09-07T20:49:13.146Z,54.99
2022-09-07T20:51:40.129Z,55.62
2022-09-07T20:54:07.388Z,55.65
2022-09-07T20:56:34.708Z,55.97
2022-09-07T20:59:02.798Z,56.14
2022-09-07T21:01:32.047Z,55.37
2022-09-07T21:04:00.789Z,54.86
2022-09-07T21:06:29.012Z,55.18
2022-09-07T21:08:57.333Z,55.33
2022-09-07T21:11:31.303Z,56.22
2022-09-07T21:14:00.688Z,56.69
2022-09-07T21:16:28.840Z,56.76
2022-09-07T21:18:58.422Z,57.45
2022-09-07T21:21:27.384Z,57.49
2022-09-07T21:23:57.014Z,56.97
2022-09-07T21:26:24.477Z,56.47
2022-09-07T21:28:59.616Z,56.16
2022-09-07T21:31:27.759Z,56.05
2022-09-07T21:33:56.480Z,55.62
2022-09-07T21:36:24.258Z,55.06
2022-09-07T21:38:52.011Z,55.79
2022-09-07T21:41:21.109Z,55.80
2022-09-07T21:43:48.246Z,55.94
2022-09-07T21:46:18.458Z,55.93
2022-09-07T21:48:46.391Z,55.99
2022-09-07T21:51:14.855Z,56.21
2022-09-07T21:53:42.958Z,56.19
2022-09-07T21:56:12.654Z,55.96
2022-09-07T21:58:40.474Z,56.32
2022-09-07T22:01:12.722Z,56.37
2022-09-07T22:03:40.716Z,56.17
2022-09-07T22:06:09.163Z,57.51
2022-09-07T22:08:37.641Z,58.27
2022-09-07T22:11:09.572Z,57.72
2022-09-07T22:13:36.961Z,57.19
2022-09-07T22:16:05.251Z,57.27
2022-09-07T22:18:32.294Z,56.65
2022-09-07T22:21:08.008Z,56.37
2022-09-07T22:23:37.995Z,56.91
2022-09-07T22:26:05.601Z,57.03
2022-09-07T22:28:32.899Z,57.46
2022-09-07T22:31:15.792Z,57.77
2022-09-07T22:33:43.948Z,57.45
2022-09-07T22:36:26.472Z,57.28
2022-09-07T22:38:55.841Z,56.71
2022-09-07T22:41:26.626Z,56.91
2022-09-07T22:43:54.051Z,57.12
2022-09-07T22:46:23.293Z,57.13
2022-09-07T22:48:50.711Z,56.82
2022-09-07T22:51:17.686Z,56.46
2022-09-07T22:53:45.204Z,57.84
2022-09-07T22:56:18.712Z,59.07
2022-09-07T22:58:50.680Z,57.60
2022-09-07T23:01:18.229Z,57.46
2022-09-07T23:03:45.772Z,57.75
2022-09-07T23:06:23.746Z,57.02
2022-09-07T23:08:52.224Z,57.65
2022-09-07T23:11:19.912Z,58.62
2022-09-07T23:13:53.890Z,58.89
2022-09-07T23:16:21.751Z,58.79
2022-09-07T23:18:49.064Z,60.44
2022-09-07T23:21:16.157Z,60.52
2022-09-07T23:23:43.067Z,60.13
2022-09-07T23:26:10.251Z,60.02
2022-09-07T23:28:37.201Z,60.56
2022-09-07T23:31:04.206Z,59.44
2022-09-07T23:33:31.183Z,59.25
2022-09-07T23:36:00.354Z,59.02
2022-09-07T23:38:28.123Z,59.67
2022-09-07T23:40:55.881Z,59.55
2022-09-07T23:48:18.503Z,60.80
2022-09-07T23:50:46.185Z,60.33
2022-09-07T23:53:13.726Z,60.46
2022-09-07T23:55:41.390Z,60.45
2022-09-07T23:58:09.450Z,61.39
